Time;durP1;ratioP1;P1;durP2;ratioP2;P2;SDS_P1;SDS_P2;PMS_P1;PMS_P2;Temp;Humidity;BMP_temperature;BMP_pressure;BME280_temperature;BME280_humidity;BME280_pressure;Samples;Min_cycle;Max_cycle;Signal;HPM_P1;HPM_P2
2023/02/15 00:01:45;;;;;;;13.98;5.43;;;;;;;;;;10533097;28;20039;-79
2023/02/15 00:06:47;;;;;;;12.03;5.20;;;;;;;;;;10525247;28;20115;-79
2023/02/15 00:11:51;;;;;;;14.00;5.23;;;;;;;;;;10529708;28;20614;-78
2023/02/15 00:16:54;;;;;;;15.00;5.25;;;;;;;;;;10501567;28;20086;-79
2023/02/15 00:21:57;;;;;;;12.77;5.07;;;;;;;;;;10504031;28;20512;-77
2023/02/15 00:27:01;;;;;;;10.73;3.90;;;;;;;;;;10520648;28;20032;-77
2023/02/15 00:32:04;;;;;;;11.52;4.78;;;;;;;;;;10525217;28;20041;-76
2023/02/15 00:37:06;;;;;;;11.70;4.70;;;;;;;;;;10520947;28;20051;-76
2023/02/15 00:42:11;;;;;;;12.50;5.10;;;;;;;;;;10520194;28;20054;-78
2023/02/15 00:47:13;;;;;;;13.70;5.70;;;;;;;;;;10524544;28;20044;-77
2023/02/15 00:52:16;;;;;;;10.63;4.50;;;;;;;;;;10521844;28;20120;-78
2023/02/15 00:57:20;;;;;;;4.33;2.70;;;;;;;;;;10523157;28;20146;-78
2023/02/15 01:02:22;;;;;;;5.38;2.65;;;;;;;;;;10518159;28;20126;-78
2023/02/15 01:07:25;;;;;;;7.43;3.43;;;;;;;;;;10516428;28;20062;-77
2023/02/15 01:12:29;;;;;;;12.73;5.30;;;;;;;;;;10518205;28;20051;-78
2023/02/15 01:17:32;;;;;;;10.15;4.13;;;;;;;;;;10518166;28;20509;-78
2023/02/15 01:22:34;;;;;;;5.77;2.43;;;;;;;;;;10516201;28;20120;-79
2023/02/15 01:27:38;;;;;;;12.93;4.47;;;;;;;;;;10521718;28;20048;-79
2023/02/15 01:32:41;;;;;;;10.02;3.85;;;;;;;;;;10516355;28;20063;-78
2023/02/15 01:37:45;;;;;;;5.53;2.70;;;;;;;;;;10521239;28;20482;-79
2023/02/15 01:42:51;;;;;;;8.90;3.63;;;;;;;;;;10530777;28;20101;-79
2023/02/15 01:47:56;;;;;;;7.37;3.20;;;;;;;;;;10526934;28;20048;-78
2023/02/15 01:53:02;;;;;;;8.77;3.17;;;;;;;;;;10522442;28;20508;-78
2023/02/15 01:58:07;;;;;;;6.03;2.30;;;;;;;;;;10524760;28;20067;-77
2023/02/15 02:03:10;;;;;;;9.03;4.03;;;;;;;;;;10526998;28;20477;-78
2023/02/15 02:08:13;;;;;;;14.30;6.03;;;;;;;;;;10531270;28;20643;-77
2023/02/15 02:13:17;;;;;;;9.90;3.97;;;;;;;;;;10523392;28;20094;-78
2023/02/15 02:18:23;;;;;;;13.00;4.80;;;;;;;;;;10528865;28;20336;-78
2023/02/15 02:23:30;;;;;;;6.00;3.07;;;;;;;;;;10523252;28;20039;-78
2023/02/15 02:28:45;;;;;;;15.13;5.30;;;;;;;;;;10520282;28;20048;-78
2023/02/15 02:33:55;;;;;;;11.48;4.28;;;;;;;;;;10521897;28;20106;-78
2023/02/15 02:39:10;;;;;;;9.23;3.63;;;;;;;;;;10538928;28;20703;-78
2023/02/15 02:44:17;;;;;;;6.00;2.60;;;;;;;;;;10531297;28;20036;-77
2023/02/15 02:49:30;;;;;;;15.70;5.47;;;;;;;;;;10531793;28;20067;-76
2023/02/15 02:54:34;;;;;;;3.17;1.90;;;;;;;;;;10528820;28;20044;-77
2023/02/15 02:59:39;;;;;;;5.07;2.92;;;;;;;;;;10535294;28;20401;-77
2023/02/15 03:04:46;;;;;;;6.27;3.37;;;;;;;;;;10523489;28;20420;-77
2023/02/15 03:09:50;;;;;;;1.73;1.07;;;;;;;;;;10518922;28;20044;-78
2023/02/15 03:14:52;;;;;;;;;;;;;;;;;;10522877;28;20415;-77
2023/02/15 03:19:58;;;;;;;20.17;5.27;;;;;;;;;;10523777;28;19920;-77
2023/02/15 03:25:05;;;;;;;16.10;7.00;;;;;;;;;;10520279;28;20055;-77
2023/02/15 03:30:11;;;;;;;6.37;3.33;;;;;;;;;;10526062;28;20472;-76
2023/02/15 03:35:15;;;;;;;18.53;6.17;;;;;;;;;;10528105;28;20095;-76
2023/02/15 03:45:54;;;;;;;23.27;6.47;;;;;;;;;;10512981;28;20042;-76
2023/02/15 03:56:21;;;;;;;15.35;5.57;;;;;;;;;;10515948;28;20036;-76
2023/02/15 04:01:57;;;;;;;14.87;5.17;;;;;;;;;;10519459;28;20127;-78
2023/02/15 04:07:02;;;;;;;13.47;5.63;;;;;;;;;;10515965;28;20043;-78
2023/02/15 04:12:05;;;;;;;16.30;5.67;;;;;;;;;;10523352;28;20032;-77
2023/02/15 04:17:08;;;;;;;15.83;6.03;;;;;;;;;;10503439;28;20481;-77
2023/02/15 04:27:32;;;;;;;4.70;2.20;;;;;;;;;;10519476;28;20063;-78
2023/02/15 04:32:34;;;;;;;18.73;6.07;;;;;;;;;;10527822;28;20074;-78
2023/02/15 04:37:39;;;;;;;12.47;4.67;;;;;;;;;;10519502;28;20504;-77
2023/02/15 04:42:41;;;;;;;23.17;7.40;;;;;;;;;;10519602;28;20032;-78
2023/02/15 04:47:44;;;;;;;25.37;7.20;;;;;;;;;;10522079;28;20424;-78
2023/02/15 04:52:48;;;;;;;19.70;6.90;;;;;;;;;;10518684;28;20068;-78
2023/02/15 04:57:50;;;;;;;18.67;5.93;;;;;;;;;;10515368;28;20043;-78
2023/02/15 05:02:53;;;;;;;14.20;5.40;;;;;;;;;;10520359;28;20420;-78
2023/02/15 05:07:58;;;;;;;10.67;4.97;;;;;;;;;;10520063;28;20043;-77
2023/02/15 05:13:00;;;;;;;25.17;9.25;;;;;;;;;;10501904;28;20477;-77
2023/02/15 05:18:03;;;;;;;15.90;5.20;;;;;;;;;;10518469;28;20051;-76
2023/02/15 05:23:07;;;;;;;13.20;5.43;;;;;;;;;;10518239;28;20044;-77
2023/02/15 05:28:22;;;;;;;17.55;6.55;;;;;;;;;;10514221;28;20056;-77
2023/02/15 05:33:25;;;;;;;17.13;6.63;;;;;;;;;;10508482;28;20036;-77
2023/02/15 05:38:29;;;;;;;14.77;6.83;;;;;;;;;;10518786;28;20044;-77
2023/02/15 05:43:32;;;;;;;18.07;7.13;;;;;;;;;;10523746;28;20044;-77
2023/02/15 05:48:35;;;;;;;17.27;6.77;;;;;;;;;;10497490;28;20071;-76
2023/02/15 05:53:39;;;;;;;18.20;6.83;;;;;;;;;;10519088;28;20155;-78
2023/02/15 05:58:41;;;;;;;;;;;;;;;;;;10520090;28;20546;-77
2023/02/15 06:03:44;;;;;;;21.00;7.33;;;;;;;;;;10516661;28;19951;-78
2023/02/15 06:08:48;;;;;;;18.43;7.27;;;;;;;;;;10523464;28;20447;-79
2023/02/15 06:13:51;;;;;;;21.17;7.32;;;;;;;;;;10516855;28;20052;-77
2023/02/15 06:18:54;;;;;;;19.63;7.87;;;;;;;;;;10519040;28;21638;-78
2023/02/15 06:23:58;;;;;;;21.43;8.60;;;;;;;;;;10514036;28;20091;-78
2023/02/15 06:29:01;;;;;;;22.60;7.55;;;;;;;;;;10501322;28;20047;-77
2023/02/15 06:34:03;;;;;;;20.20;8.20;;;;;;;;;;10525685;28;20100;-78
2023/02/15 06:39:08;;;;;;;21.63;8.30;;;;;;;;;;10490025;28;20086;-78
2023/02/15 06:44:10;;;;;;;29.73;9.32;;;;;;;;;;10485423;28;20490;-78
2023/02/15 06:49:13;;;;;;;21.63;8.77;;;;;;;;;;10486277;28;20482;-78
2023/02/15 06:54:17;;;;;;;22.40;8.17;;;;;;;;;;10480794;28;20187;-78
2023/02/15 06:59:20;;;;;;;24.35;8.55;;;;;;;;;;10478815;28;20501;-78
2023/02/15 07:04:23;;;;;;;17.90;6.57;;;;;;;;;;10479194;28;20516;-77
2023/02/15 07:09:27;;;;;;;16.83;5.80;;;;;;;;;;10480332;28;20052;-78
2023/02/15 07:14:30;;;;;;;;;;;;;;;;;;10489026;28;20037;-77
2023/02/15 07:19:32;;;;;;;21.90;8.33;;;;;;;;;;10480276;28;19928;-79
2023/02/15 07:24:37;;;;;;;15.97;6.67;;;;;;;;;;10485954;28;20099;-78
2023/02/15 07:29:39;;;;;;;13.98;6.30;;;;;;;;;;10495418;28;20064;-78
2023/02/15 07:34:42;;;;;;;18.83;6.50;;;;;;;;;;10492886;28;20246;-77
2023/02/15 07:39:46;;;;;;;10.33;4.37;;;;;;;;;;10490576;28;20055;-78
2023/02/15 07:44:48;;;;;;;16.75;6.70;;;;;;;;;;10482903;28;20039;-79
2023/02/15 07:49:51;;;;;;;13.43;5.83;;;;;;;;;;10483632;28;20072;-78
2023/02/15 07:54:55;;;;;;;20.37;7.70;;;;;;;;;;10464696;28;20127;-79
2023/02/15 07:59:58;;;;;;;21.35;7.30;;;;;;;;;;10481724;28;20045;-78
2023/02/15 08:05:00;;;;;;;15.03;6.27;;;;;;;;;;10477959;28;20053;-78
2023/02/15 08:10:05;;;;;;;13.93;5.90;;;;;;;;;;10486995;28;20068;-79
2023/02/15 08:15:08;;;;;;;12.10;5.43;;;;;;;;;;10487697;28;20040;-78
2023/02/15 08:20:11;;;;;;;12.20;4.70;;;;;;;;;;10484441;28;20130;-77
2023/02/15 08:25:15;;;;;;;22.87;8.50;;;;;;;;;;10479549;28;20088;-78
2023/02/15 08:30:18;;;;;;;23.23;7.18;;;;;;;;;;10482128;28;20045;-79
2023/02/15 08:35:20;;;;;;;19.30;8.15;;;;;;;;;;10478870;28;20136;-79
2023/02/15 08:40:24;;;;;;;26.00;8.37;;;;;;;;;;10499181;28;20076;-83
2023/02/15 08:45:27;;;;;;;20.70;8.00;;;;;;;;;;10477032;28;20037;-79
2023/02/15 08:50:30;;;;;;;13.50;5.03;;;;;;;;;;10471560;28;20044;-78
2023/02/15 08:55:34;;;;;;;23.17;9.45;;;;;;;;;;10480370;28;20036;-78
2023/02/15 09:00:36;;;;;;;23.50;8.73;;;;;;;;;;10477769;28;20036;-80
2023/02/15 09:05:39;;;;;;;18.92;8.95;;;;;;;;;;10476112;28;20089;-78
2023/02/15 09:10:43;;;;;;;17.65;9.05;;;;;;;;;;10480727;28;20044;-79
2023/02/15 09:15:46;;;;;;;18.05;9.73;;;;;;;;;;10485804;28;20040;-80
2023/02/15 09:20:48;;;;;;;21.17;11.50;;;;;;;;;;10483116;28;20143;-79
2023/02/15 09:25:52;;;;;;;19.35;10.68;;;;;;;;;;10476582;28;20145;-80
2023/02/15 09:30:55;;;;;;;15.88;10.98;;;;;;;;;;10474753;28;20051;-81
2023/02/15 09:35:58;;;;;;;19.17;11.75;;;;;;;;;;10480650;28;20043;-81
2023/02/15 09:41:00;;;;;;;;;;;;;;;;;;10486969;28;20141;-80
2023/02/15 09:46:12;;;;;;;19.98;11.07;;;;;;;;;;10479336;28;20441;-79
2023/02/15 09:51:33;;;;;;;19.23;12.27;;;;;;;;;;10474457;28;20064;-80
2023/02/15 09:56:39;;;;;;;19.77;11.73;;;;;;;;;;10478291;28;20157;-81
2023/02/15 10:01:47;;;;;;;17.33;12.07;;;;;;;;;;10490130;28;20052;-80
2023/02/15 10:06:56;;;;;;;16.38;12.48;;;;;;;;;;10484737;28;20033;-80
2023/02/15 10:12:08;;;;;;;19.08;12.98;;;;;;;;;;10460062;28;20075;-81
2023/02/15 10:17:17;;;;;;;22.00;12.65;;;;;;;;;;10483451;28;20060;-79
2023/02/15 10:22:26;;;;;;;18.15;11.85;;;;;;;;;;10484423;28;20052;-79
2023/02/15 10:27:31;;;;;;;15.50;11.82;;;;;;;;;;10480455;28;20059;-81
2023/02/15 10:32:38;;;;;;;16.02;12.07;;;;;;;;;;10481488;28;20044;-81
2023/02/15 10:37:48;;;;;;;16.10;12.05;;;;;;;;;;10481787;28;20037;-79
2023/02/15 10:42:59;;;;;;;17.17;12.18;;;;;;;;;;10481412;28;20560;-80
2023/02/15 10:48:09;;;;;;;18.52;13.10;;;;;;;;;;10483131;28;20033;-80
2023/02/15 10:53:20;;;;;;;15.85;12.48;;;;;;;;;;10483354;28;20055;-80
2023/02/15 10:58:30;;;;;;;20.80;12.52;;;;;;;;;;10475875;28;20207;-81
2023/02/15 11:03:46;;;;;;;18.92;13.30;;;;;;;;;;10479763;28;20051;-81
2023/02/15 11:08:51;;;;;;;18.77;13.07;;;;;;;;;;10483996;28;20043;-81
2023/02/15 11:13:55;;;;;;;21.40;13.93;;;;;;;;;;10486019;28;20059;-82
2023/02/15 11:19:00;;;;;;;22.20;13.88;;;;;;;;;;10482132;28;20076;-81
2023/02/15 11:24:10;;;;;;;18.77;13.73;;;;;;;;;;10478954;28;20044;-81
2023/02/15 11:29:19;;;;;;;23.08;13.73;;;;;;;;;;10485396;28;20048;-82
2023/02/15 11:34:28;;;;;;;21.23;14.32;;;;;;;;;;10468281;28;21798;-83
2023/02/15 11:39:31;;;;;;;20.95;14.07;;;;;;;;;;10483053;28;20067;-81
2023/02/15 11:44:36;;;;;;;21.60;14.50;;;;;;;;;;10481045;28;20048;-82
2023/02/15 11:49:40;;;;;;;23.50;14.80;;;;;;;;;;10485601;28;20466;-82
2023/02/15 11:54:44;;;;;;;20.10;14.65;;;;;;;;;;10471391;28;20078;-81
2023/02/15 11:59:50;;;;;;;21.52;14.20;;;;;;;;;;10482646;28;20056;-81
2023/02/15 12:04:56;;;;;;;23.63;15.52;;;;;;;;;;10487797;28;20049;-81
2023/02/15 12:10:06;;;;;;;21.48;14.57;;;;;;;;;;10488541;28;20041;-81
2023/02/15 12:15:10;;;;;;;25.30;15.05;;;;;;;;;;10492358;28;20040;-80
2023/02/15 12:20:25;;;;;;;22.42;13.13;;;;;;;;;;10491494;28;20045;-81
2023/02/15 12:25:31;;;;;;;27.77;15.45;;;;;;;;;;10489081;28;20110;-80
2023/02/15 12:30:36;;;;;;;20.85;13.88;;;;;;;;;;10473438;28;20492;-80
2023/02/15 12:35:40;;;;;;;22.73;14.80;;;;;;;;;;10475551;28;20032;-80
2023/02/15 12:40:50;;;;;;;25.73;14.13;;;;;;;;;;10480178;28;20048;-80
2023/02/15 12:45:53;;;;;;;21.25;13.43;;;;;;;;;;10476393;28;20111;-81
2023/02/15 12:51:07;;;;;;;20.73;13.40;;;;;;;;;;10477950;28;20178;-80
2023/02/15 12:56:11;;;;;;;18.58;12.60;;;;;;;;;;10483358;28;20044;-82
2023/02/15 13:01:15;;;;;;;19.42;12.27;;;;;;;;;;10481234;28;20224;-82
2023/02/15 13:06:19;;;;;;;19.63;12.55;;;;;;;;;;10471644;28;20045;-81
2023/02/15 13:11:25;;;;;;;17.85;11.68;;;;;;;;;;10474875;28;20040;-81
2023/02/15 13:16:31;;;;;;;21.95;12.70;;;;;;;;;;10474019;28;20044;-81
2023/02/15 13:21:38;;;;;;;17.15;12.20;;;;;;;;;;10487377;28;20674;-81
2023/02/15 13:26:44;;;;;;;17.27;12.40;;;;;;;;;;10465636;28;20043;-81
2023/02/15 13:31:47;;;;;;;23.17;12.23;;;;;;;;;;10473526;28;20040;-80
2023/02/15 13:36:55;;;;;;;20.02;11.95;;;;;;;;;;10482597;28;20043;-81
2023/02/15 13:42:01;;;;;;;19.00;12.13;;;;;;;;;;10491743;28;20421;-81
2023/02/15 13:47:10;;;;;;;20.15;11.63;;;;;;;;;;10486146;28;20064;-81
2023/02/15 13:52:19;;;;;;;22.35;11.48;;;;;;;;;;10489941;28;20037;-81
2023/02/15 13:57:28;;;;;;;16.58;10.68;;;;;;;;;;10474220;28;20459;-82
2023/02/15 14:02:39;;;;;;;17.63;11.13;;;;;;;;;;10482680;28;20437;-81
2023/02/15 14:07:50;;;;;;;17.95;10.57;;;;;;;;;;10487254;28;20238;-80
2023/02/15 14:12:58;;;;;;;18.05;10.50;;;;;;;;;;10485196;28;20477;-80
2023/02/15 14:18:09;;;;;;;21.08;11.30;;;;;;;;;;10497975;28;20059;-80
2023/02/15 14:23:17;;;;;;;22.40;11.27;;;;;;;;;;10486131;28;20044;-80
2023/02/15 14:28:23;;;;;;;17.25;10.30;;;;;;;;;;10482107;28;20028;-81
2023/02/15 14:33:30;;;;;;;21.75;10.80;;;;;;;;;;10490588;28;20086;-81
2023/02/15 14:38:45;;;;;;;18.50;9.57;;;;;;;;;;10478699;28;20037;-80
2023/02/15 14:43:53;;;;;;;23.27;10.90;;;;;;;;;;10486193;28;20436;-81
2023/02/15 14:48:57;;;;;;;20.70;10.38;;;;;;;;;;10484849;28;20032;-80
2023/02/15 14:54:01;;;;;;;17.35;9.85;;;;;;;;;;10466717;28;20450;-79
2023/02/15 14:59:15;;;;;;;21.33;10.13;;;;;;;;;;10503869;28;20040;-80
2023/02/15 15:04:23;;;;;;;20.85;10.80;;;;;;;;;;10478773;28;20071;-80
2023/02/15 15:09:29;;;;;;;22.75;10.38;;;;;;;;;;10486264;28;20043;-79
2023/02/15 15:14:39;;;;;;;22.95;11.07;;;;;;;;;;10488538;28;20045;-81
2023/02/15 15:20:08;;;;;;;21.42;10.13;;;;;;;;;;10480760;28;20036;-80
2023/02/15 15:25:13;;;;;;;22.27;10.93;;;;;;;;;;10477525;28;20462;-80
2023/02/15 15:30:33;;;;;;;24.42;10.90;;;;;;;;;;10474577;28;20036;-80
2023/02/15 15:35:44;;;;;;;26.33;12.10;;;;;;;;;;10468514;28;20049;-80
2023/02/15 15:41:04;;;;;;;26.27;11.57;;;;;;;;;;10486105;28;20045;-80
2023/02/15 15:46:11;;;;;;;25.30;11.80;;;;;;;;;;10460827;28;20036;-81
2023/02/15 15:51:18;;;;;;;27.40;11.23;;;;;;;;;;10480798;28;20099;-79
2023/02/15 15:56:25;;;;;;;25.00;11.40;;;;;;;;;;10482203;28;20064;-81
2023/02/15 16:01:28;;;;;;;24.33;11.13;;;;;;;;;;10477843;28;20040;-79
2023/02/15 16:06:33;;;;;;;30.75;12.57;;;;;;;;;;10479470;28;20132;-79
2023/02/15 16:11:39;;;;;;;34.90;13.07;;;;;;;;;;10463260;28;20047;-80
2023/02/15 16:16:46;;;;;;;32.05;11.45;;;;;;;;;;10484424;28;20167;-79
2023/02/15 16:21:49;;;;;;;27.55;11.45;;;;;;;;;;10491188;28;20041;-79
2023/02/15 16:27:05;;;;;;;31.38;13.68;;;;;;;;;;10481205;28;20478;-79
2023/02/15 16:32:17;;;;;;;32.45;12.57;;;;;;;;;;10485989;28;20049;-80
2023/02/15 16:37:21;;;;;;;31.70;11.27;;;;;;;;;;10486677;28;20409;-79
2023/02/15 16:42:25;;;;;;;30.27;11.88;;;;;;;;;;10472379;28;20330;-79
2023/02/15 16:47:28;;;;;;;;;;;;;;;;;;10470874;28;20036;-80
2023/02/15 16:52:31;;;;;;;35.13;12.63;;;;;;;;;;10479511;28;19932;-79
2023/02/15 16:57:36;;;;;;;31.77;11.27;;;;;;;;;;10476018;28;20423;-79
2023/02/15 17:02:39;;;;;;;38.88;14.38;;;;;;;;;;10478375;28;20052;-79
2023/02/15 17:08:06;;;;;;;34.05;12.20;;;;;;;;;;10477621;28;20043;-81
2023/02/15 17:13:14;;;;;;;18.10;7.38;;;;;;;;;;10479869;28;20533;-80
2023/02/15 17:18:19;;;;;;;17.38;6.63;;;;;;;;;;10486440;28;20040;-79
2023/02/15 17:23:23;;;;;;;24.98;9.43;;;;;;;;;;10488451;28;20111;-80
2023/02/15 17:28:28;;;;;;;25.63;10.07;;;;;;;;;;10476775;28;20086;-79
2023/02/15 17:33:36;;;;;;;21.75;7.68;;;;;;;;;;10483802;28;20076;-80
2023/02/15 17:38:40;;;;;;;23.77;9.15;;;;;;;;;;10483512;28;20044;-78
2023/02/15 17:43:44;;;;;;;26.30;9.13;;;;;;;;;;10486303;28;20040;-79
2023/02/15 17:48:47;;;;;;;33.60;9.60;;;;;;;;;;10482756;28;20762;-79
2023/02/15 17:59:11;;;;;;;17.35;6.72;;;;;;;;;;10478101;28;20045;-78
2023/02/15 18:14:56;;;;;;;22.98;8.77;;;;;;;;;;10480759;28;20051;-80
2023/02/15 18:20:00;;;;;;;;;;;;;;;;;;10478625;28;20436;-78
2023/02/15 18:25:02;;;;;;;28.33;9.95;;;;;;;;;;10487577;28;19920;-78
2023/02/15 18:30:07;;;;;;;35.47;12.18;;;;;;;;;;10482517;28;20039;-81
2023/02/15 18:35:13;;;;;;;38.88;12.68;;;;;;;;;;10490391;28;20057;-78
2023/02/15 18:40:18;;;;;;;22.98;9.13;;;;;;;;;;10483117;28;20044;-79
2023/02/15 18:45:24;;;;;;;26.40;10.00;;;;;;;;;;10472121;28;20536;-79
2023/02/15 18:50:28;;;;;;;18.33;6.30;;;;;;;;;;10481338;28;20094;-79
2023/02/15 18:55:32;;;;;;;14.10;6.05;;;;;;;;;;10485055;28;20513;-78
2023/02/15 19:00:34;;;;;;;;;;;;;;;;;;10468847;28;20619;-79
2023/02/15 19:05:40;;;;;;;20.43;7.70;;;;;;;;;;10479556;28;19928;-78
2023/02/15 19:10:43;;;;;;;24.15;8.35;;;;;;;;;;10484355;28;20028;-78
2023/02/15 19:15:45;;;;;;;23.23;6.60;;;;;;;;;;10479651;28;20067;-79
2023/02/15 19:20:49;;;;;;;27.80;9.77;;;;;;;;;;10488312;28;20035;-80
2023/02/15 19:25:53;;;;;;;24.90;8.98;;;;;;;;;;10490649;28;20124;-79
2023/02/15 19:30:56;;;;;;;19.02;7.47;;;;;;;;;;10484913;28;20052;-79
2023/02/15 19:36:00;;;;;;;25.77;9.65;;;;;;;;;;10489858;28;20528;-78
2023/02/15 19:41:05;;;;;;;28.77;10.60;;;;;;;;;;10479820;28;20037;-79
2023/02/15 19:46:09;;;;;;;28.30;10.50;;;;;;;;;;10482131;28;20084;-77
2023/02/15 19:51:12;;;;;;;;;;;;;;;;;;10483824;28;20040;-81
2023/02/15 19:56:18;;;;;;;28.67;10.87;;;;;;;;;;10503791;28;19981;-80
2023/02/15 20:01:22;;;;;;;28.43;10.63;;;;;;;;;;10487396;28;20131;-79
2023/02/15 20:06:24;;;;;;;25.40;10.10;;;;;;;;;;10482644;28;20041;-80
2023/02/15 20:11:28;;;;;;;23.67;8.77;;;;;;;;;;10486067;28;20401;-78
2023/02/15 20:16:31;;;;;;;;;;;;;;;;;;10484751;28;20059;-79
2023/02/15 20:21:34;;;;;;;23.25;8.75;;;;;;;;;;10479840;28;20453;-79
2023/02/15 20:26:38;;;;;;;24.20;7.95;;;;;;;;;;10492449;28;20409;-82
2023/02/15 20:31:41;;;;;;;25.65;8.50;;;;;;;;;;10484605;28;20079;-80
2023/02/15 20:36:44;;;;;;;20.43;7.80;;;;;;;;;;10481419;28;20044;-81
2023/02/15 20:41:48;;;;;;;24.10;7.53;;;;;;;;;;10478229;28;20048;-79
2023/02/15 20:46:52;;;;;;;27.80;9.05;;;;;;;;;;10474810;28;20188;-80
2023/02/15 20:51:55;;;;;;;;;;;;;;;;;;10477125;28;20043;-80
2023/02/15 20:57:00;;;;;;;23.67;9.23;;;;;;;;;;10480267;28;19935;-80
2023/02/15 21:02:02;;;;;;;;;;;;;;;;;;10476882;28;20037;-79
2023/02/15 21:07:05;;;;;;;28.13;9.45;;;;;;;;;;10475183;28;19925;-79
2023/02/15 21:12:12;;;;;;;27.58;9.55;;;;;;;;;;10484294;28;20053;-80
2023/02/15 21:17:16;;;;;;;28.63;8.73;;;;;;;;;;10476652;28;20155;-79
2023/02/15 21:22:20;;;;;;;28.05;10.05;;;;;;;;;;10478712;28;20045;-80
2023/02/15 21:27:24;;;;;;;23.35;9.40;;;;;;;;;;10481100;28;20443;-80
2023/02/15 21:32:27;;;;;;;36.63;11.43;;;;;;;;;;10501810;28;20231;-78
2023/02/15 21:37:31;;;;;;;33.93;11.17;;;;;;;;;;10483263;28;20164;-78
2023/02/15 21:47:56;;;;;;;43.53;12.73;;;;;;;;;;10481496;28;21837;-79
2023/02/15 21:52:59;;;;;;;36.63;11.63;;;;;;;;;;10489905;28;20203;-77
2023/02/15 21:58:02;;;;;;;34.23;12.87;;;;;;;;;;10486204;28;20048;-77
2023/02/15 22:03:05;;;;;;;38.70;10.02;;;;;;;;;;10504016;28;20135;-78
2023/02/15 22:08:10;;;;;;;39.15;12.68;;;;;;;;;;10492163;28;20032;-79
2023/02/15 22:13:16;;;;;;;39.60;13.05;;;;;;;;;;10490377;28;20116;-79
2023/02/15 22:18:20;;;;;;;38.92;12.63;;;;;;;;;;10486215;28;20478;-79
2023/02/15 22:23:23;;;;;;;34.63;12.90;;;;;;;;;;10481664;28;20112;-79
2023/02/15 22:28:30;;;;;;;28.92;9.60;;;;;;;;;;10486448;28;20102;-79
2023/02/15 22:33:34;;;;;;;36.33;12.37;;;;;;;;;;10485693;28;20139;-78
2023/02/15 22:38:36;;;;;;;30.07;10.37;;;;;;;;;;10484025;28;20040;-79
2023/02/15 22:43:41;;;;;;;28.00;9.37;;;;;;;;;;10485757;28;20136;-79
2023/02/15 22:48:46;;;;;;;28.83;9.53;;;;;;;;;;10471868;28;20086;-78
2023/02/15 22:53:51;;;;;;;20.60;6.27;;;;;;;;;;10483126;28;20561;-77
2023/02/15 22:58:58;;;;;;;27.40;9.50;;;;;;;;;;10483486;28;20071;-77
2023/02/15 23:04:02;;;;;;;14.00;5.33;;;;;;;;;;10486489;28;20045;-78
2023/02/15 23:09:05;;;;;;;;;;;;;;;;;;10480516;28;20442;-78
2023/02/15 23:14:20;;;;;;;24.57;8.57;;;;;;;;;;10491835;28;19943;-78
2023/02/15 23:19:22;;;;;;;;;;;;;;;;;;10484826;28;20063;-79
2023/02/15 23:24:26;;;;;;;21.70;8.37;;;;;;;;;;10487931;28;19946;-79
2023/02/15 23:29:30;;;;;;;26.20;9.07;;;;;;;;;;10482550;28;20040;-79
2023/02/15 23:34:33;;;;;;;23.63;8.45;;;;;;;;;;10481518;28;20190;-79
2023/02/15 23:44:57;;;;;;;33.70;11.90;;;;;;;;;;10477557;28;20048;-80
2023/02/15 23:50:00;;;;;;;25.13;9.45;;;;;;;;;;10484018;28;20028;-79
2023/02/15 23:55:02;;;;;;;27.53;10.17;;;;;;;;;;10482410;28;20044;-77
